createdAt,value
2023-05-08T00:01:02.829Z,37.24
2023-05-08T00:03:29.933Z,37.15
2023-05-08T00:05:56.919Z,37.21
2023-05-08T00:08:23.876Z,36.90
2023-05-08T00:10:50.789Z,36.92
2023-05-08T00:13:17.811Z,36.93
2023-05-08T00:15:44.711Z,37.08
2023-05-08T00:18:11.889Z,37.29
2023-05-08T00:20:38.695Z,37.77
2023-05-08T00:23:05.758Z,37.44
2023-05-08T00:25:32.706Z,37.27
2023-05-08T00:28:00.200Z,37.58
2023-05-08T00:30:27.290Z,37.76
2023-05-08T00:32:54.418Z,38.07
2023-05-08T00:35:22.088Z,37.77
2023-05-08T00:37:48.863Z,37.63
2023-05-08T00:40:16.231Z,38.00
2023-05-08T00:42:43.366Z,38.07
2023-05-08T00:45:10.848Z,37.98
2023-05-08T00:47:37.860Z,38.00
2023-05-08T00:50:05.580Z,38.08
2023-05-08T00:52:33.159Z,38.00
2023-05-08T00:55:01.518Z,37.88
2023-05-08T00:57:32.676Z,38.08
2023-05-08T01:00:00.243Z,38.08
2023-05-08T01:02:27.668Z,37.63
2023-05-08T01:04:54.678Z,37.53
2023-05-08T01:07:21.525Z,37.65
2023-05-08T01:09:49.038Z,37.81
2023-05-08T01:12:16.660Z,38.52
2023-05-08T01:14:55.886Z,38.25
2023-05-08T01:17:46.118Z,38.28
2023-05-08T01:20:17.820Z,38.72
2023-05-08T01:23:06.807Z,38.54
2023-05-08T01:25:52.019Z,38.58
2023-05-08T01:28:37.794Z,39.16
2023-05-08T01:31:22.958Z,39.13
2023-05-08T01:33:57.017Z,38.78
2023-05-08T01:36:44.380Z,38.98
2023-05-08T01:39:34.341Z,38.72
2023-05-08T01:42:05.124Z,38.57
2023-05-08T01:44:42.049Z,38.82
2023-05-08T01:47:10.183Z,38.58
2023-05-08T01:49:47.843Z,38.53
2023-05-08T01:52:32.297Z,38.71
2023-05-08T01:55:01.996Z,38.84
2023-05-08T01:57:29.560Z,38.69
2023-05-08T01:59:56.964Z,38.58
2023-05-08T02:02:24.139Z,38.31
2023-05-08T02:04:51.178Z,38.66
2023-05-08T02:07:20.496Z,38.59
2023-05-08T02:09:47.467Z,38.48
2023-05-08T02:12:14.609Z,38.77
2023-05-08T02:14:41.554Z,38.84
2023-05-08T02:17:09.641Z,38.41
2023-05-08T02:19:36.572Z,38.74
2023-05-08T02:22:03.520Z,38.91
2023-05-08T02:24:30.669Z,39.00
2023-05-08T02:26:57.475Z,38.82
2023-05-08T02:29:24.454Z,38.92
2023-05-08T02:31:52.521Z,39.14
2023-05-08T02:34:19.681Z,39.05
2023-05-08T02:36:46.625Z,39.01
2023-05-08T02:39:14.193Z,38.92
2023-05-08T02:41:41.030Z,39.00
2023-05-08T02:44:08.391Z,39.22
2023-05-08T02:46:41.980Z,39.29
2023-05-08T02:49:29.241Z,39.56
2023-05-08T02:52:24.451Z,39.34
2023-05-08T02:54:59.017Z,39.41
2023-05-08T02:57:38.006Z,39.61
2023-05-08T03:00:16.347Z,39.81
2023-05-08T03:02:44.950Z,39.71
2023-05-08T03:05:26.292Z,39.93
2023-05-08T03:07:54.589Z,39.40
2023-05-08T03:10:22.601Z,39.36
2023-05-08T03:12:50.177Z,39.71
2023-05-08T03:15:24.540Z,39.75
2023-05-08T03:17:53.746Z,39.61
2023-05-08T03:20:20.572Z,39.51
2023-05-08T03:22:48.339Z,39.27
2023-05-08T03:25:17.087Z,39.13
2023-05-08T03:27:44.441Z,39.51
2023-05-08T03:30:12.342Z,39.14
2023-05-08T03:32:41.702Z,39.09
2023-05-08T03:35:09.616Z,39.10
2023-05-08T03:37:36.604Z,39.13
2023-05-08T03:40:03.963Z,39.06
2023-05-08T03:42:30.826Z,38.84
2023-05-08T03:44:57.950Z,38.63
2023-05-08T03:47:26.249Z,38.74
2023-05-08T03:49:53.450Z,39.29
2023-05-08T03:52:21.058Z,39.06
2023-05-08T03:54:48.007Z,38.74
2023-05-08T03:57:15.055Z,39.04
2023-05-08T04:00:06.416Z,39.04
2023-05-08T04:02:50.811Z,39.46
2023-05-08T04:05:32.029Z,39.38
2023-05-08T04:08:10.092Z,39.25
2023-05-08T04:10:40.291Z,39.22
2023-05-08T04:13:13.328Z,39.37
2023-05-08T04:16:01.435Z,38.89
2023-05-08T04:18:30.044Z,38.66
2023-05-08T04:20:58.425Z,38.85
2023-05-08T04:23:27.365Z,38.66
2023-05-08T04:25:55.282Z,38.79
2023-05-08T04:28:22.732Z,38.73
2023-05-08T04:30:49.862Z,38.72
2023-05-08T04:33:18.760Z,38.28
2023-05-08T04:35:48.903Z,38.89
2023-05-08T04:38:16.181Z,38.62
2023-05-08T04:40:43.183Z,38.72
2023-05-08T04:43:10.318Z,38.41
2023-05-08T04:45:37.787Z,38.37
2023-05-08T04:48:05.462Z,38.54
2023-05-08T04:50:32.384Z,38.16
2023-05-08T04:52:59.470Z,38.04
2023-05-08T04:55:26.597Z,37.99
2023-05-08T04:57:53.764Z,37.91
2023-05-08T05:00:20.903Z,37.97
2023-05-08T05:02:48.814Z,37.30
2023-05-08T05:05:15.965Z,37.48
2023-05-08T05:07:42.959Z,37.69
2023-05-08T05:10:10.558Z,37.58
2023-05-08T05:12:38.101Z,37.81
2023-05-08T05:15:05.396Z,37.83
2023-05-08T05:17:33.863Z,37.88
2023-05-08T05:20:00.984Z,37.97
2023-05-08T05:22:28.985Z,37.24
2023-05-08T05:24:56.745Z,37.32
2023-05-08T05:27:24.695Z,37.94
2023-05-08T05:29:51.620Z,37.60
2023-05-08T05:32:18.954Z,37.56
2023-05-08T05:34:45.970Z,37.23
2023-05-08T05:37:13.089Z,37.32
2023-05-08T05:39:40.131Z,37.14
2023-05-08T05:42:07.181Z,37.01
2023-05-08T05:44:34.125Z,36.97
2023-05-08T05:47:01.062Z,36.86
2023-05-08T05:49:28.119Z,36.44
2023-05-08T05:51:54.988Z,36.62
2023-05-08T05:54:22.180Z,36.98
2023-05-08T05:56:49.451Z,37.35
2023-05-08T05:59:16.725Z,37.48
2023-05-08T06:01:44.082Z,36.84
2023-05-08T06:04:11.303Z,36.75
2023-05-08T06:06:39.395Z,37.21
2023-05-08T06:09:07.276Z,36.67
2023-05-08T06:11:34.273Z,36.63
2023-05-08T06:14:01.255Z,36.40
2023-05-08T06:16:28.394Z,36.75
2023-05-08T06:18:55.621Z,36.63
2023-05-08T06:21:22.500Z,36.45
2023-05-08T06:23:49.763Z,36.12
2023-05-08T06:26:16.597Z,35.89
2023-05-08T06:28:43.445Z,36.20
2023-05-08T06:31:10.623Z,35.69
2023-05-08T06:33:37.613Z,35.59
2023-05-08T06:36:07.569Z,36.15
2023-05-08T06:38:34.402Z,35.89
2023-05-08T06:41:01.350Z,36.18
2023-05-08T06:43:28.298Z,36.34
2023-05-08T06:45:55.380Z,36.07
2023-05-08T06:48:22.212Z,35.72
2023-05-08T06:50:51.181Z,34.86
2023-05-08T06:53:18.011Z,34.87
2023-05-08T06:55:44.924Z,34.77
2023-05-08T06:58:11.916Z,34.81
2023-05-08T07:00:38.857Z,34.83
2023-05-08T07:03:05.904Z,34.80
2023-05-08T07:05:32.935Z,34.24
2023-05-08T07:07:59.963Z,33.79
2023-05-08T07:10:27.021Z,34.41
2023-05-08T07:12:54.654Z,34.58
2023-05-08T07:15:26.420Z,34.53
2023-05-08T07:17:54.138Z,34.44
2023-05-08T07:20:21.902Z,34.60
2023-05-08T07:22:48.851Z,34.00
2023-05-08T07:25:16.348Z,34.07
2023-05-08T07:27:43.270Z,33.08
2023-05-08T07:30:10.933Z,32.98
2023-05-08T07:32:39.625Z,33.51
2023-05-08T07:35:13.623Z,33.26
2023-05-08T07:37:40.868Z,32.82
2023-05-08T07:40:08.873Z,32.58
2023-05-08T07:42:42.345Z,32.34
2023-05-08T07:45:10.114Z,32.96
2023-05-08T08:01:14.674Z,31.91
2023-05-08T08:03:41.543Z,29.77
2023-05-08T08:06:08.495Z,29.87
2023-05-08T08:08:35.543Z,30.04
2023-05-08T08:11:03.802Z,29.86
2023-05-08T08:13:31.129Z,29.33
2023-05-08T08:15:58.537Z,28.56
2023-05-08T08:18:25.799Z,28.96
2023-05-08T08:20:52.656Z,29.69
2023-05-08T08:23:19.533Z,29.48
2023-05-08T08:25:46.390Z,29.60
2023-05-08T08:28:13.258Z,29.94
2023-05-08T08:30:40.041Z,29.80
2023-05-08T08:33:07.328Z,29.12
2023-05-08T08:35:34.268Z,29.11
2023-05-08T08:38:01.204Z,29.10
2023-05-08T08:40:28.521Z,28.57
2023-05-08T08:42:55.757Z,28.85
2023-05-08T08:45:22.814Z,28.53
2023-05-08T08:47:49.765Z,28.44
2023-05-08T08:50:16.785Z,28.15
2023-05-08T08:52:58.904Z,28.26
2023-05-08T08:55:26.054Z,28.51
2023-05-08T08:57:55.466Z,28.55
2023-05-08T09:00:23.624Z,28.19
2023-05-08T09:02:50.765Z,28.17
2023-05-08T09:05:17.948Z,27.74
2023-05-08T09:07:44.774Z,27.57
2023-05-08T09:10:15.528Z,26.82
2023-05-08T09:12:42.712Z,27.06
2023-05-08T09:15:09.814Z,27.87
2023-05-08T09:17:36.703Z,28.32
2023-05-08T09:20:04.140Z,28.12
2023-05-08T09:22:31.401Z,28.23
2023-05-08T09:24:59.433Z,28.37
2023-05-08T09:27:27.809Z,28.50
2023-05-08T09:30:05.051Z,27.92
2023-05-08T09:32:32.898Z,27.70
2023-05-08T09:35:00.321Z,27.55
2023-05-08T09:37:28.089Z,27.81
2023-05-08T09:39:55.175Z,27.51
2023-05-08T09:42:23.524Z,27.37
2023-05-08T09:44:54.138Z,27.78
2023-05-08T09:47:25.167Z,27.13
2023-05-08T09:50:09.771Z,26.97
2023-05-08T09:52:38.231Z,27.48
2023-05-08T09:55:09.989Z,27.62
2023-05-08T09:57:39.444Z,27.74
2023-05-08T10:00:09.062Z,27.88
2023-05-08T10:02:38.940Z,27.84
2023-05-08T10:05:27.469Z,27.18
2023-05-08T10:07:54.448Z,26.63
2023-05-08T10:10:28.724Z,26.80
2023-05-08T10:12:56.050Z,26.97
2023-05-08T10:15:29.569Z,26.98
2023-05-08T10:18:06.754Z,26.23
2023-05-08T10:20:36.027Z,26.19
2023-05-08T10:23:03.935Z,25.90
2023-05-08T10:25:34.688Z,26.23
2023-05-08T10:28:13.932Z,26.48
2023-05-08T10:30:44.710Z,26.71
2023-05-08T10:33:11.639Z,26.78
2023-05-08T10:35:38.639Z,27.14
2023-05-08T10:38:05.817Z,26.69
2023-05-08T10:40:32.820Z,26.34
2023-05-08T10:42:59.812Z,26.39
2023-05-08T10:45:26.590Z,26.00
2023-05-08T10:48:28.293Z,26.42
2023-05-08T10:51:06.341Z,26.28
2023-05-08T10:53:36.773Z,25.80
2023-05-08T10:56:03.870Z,25.37
2023-05-08T10:58:31.783Z,25.89
2023-05-08T11:01:07.423Z,25.72
2023-05-08T11:03:42.756Z,25.88
2023-05-08T11:06:09.975Z,25.99
2023-05-08T11:08:46.717Z,25.57
2023-05-08T11:11:33.816Z,24.95
2023-05-08T11:14:07.087Z,25.27
2023-05-08T11:16:57.149Z,25.46
2023-05-08T11:19:24.792Z,24.72
2023-05-08T11:22:16.875Z,24.93
2023-05-08T11:25:06.022Z,25.31
2023-05-08T11:27:35.787Z,25.84
2023-05-08T11:30:22.356Z,25.04
2023-05-08T11:33:05.100Z,25.08
2023-05-08T11:36:01.181Z,25.09
2023-05-08T11:38:28.939Z,25.11
2023-05-08T11:40:58.359Z,25.37
2023-05-08T11:43:27.431Z,25.23
2023-05-08T11:45:55.208Z,26.00
2023-05-08T11:48:23.172Z,25.60
2023-05-08T11:50:50.124Z,24.72
2023-05-08T11:53:17.478Z,25.03
2023-05-08T11:55:52.382Z,25.61
2023-05-08T11:58:19.257Z,25.53
2023-05-08T12:00:47.062Z,25.85
2023-05-08T12:03:14.973Z,25.74
2023-05-08T12:05:42.241Z,25.86
2023-05-08T12:08:09.904Z,25.26
2023-05-08T12:10:56.951Z,25.59
2023-05-08T12:13:30.655Z,25.29
2023-05-08T12:15:58.965Z,25.07
2023-05-08T12:18:27.380Z,25.46
2023-05-08T12:20:57.167Z,25.09
2023-05-08T12:23:28.883Z,25.61
2023-05-08T12:25:58.577Z,25.46
2023-05-08T12:28:25.373Z,25.76
2023-05-08T12:30:52.349Z,25.20
2023-05-08T12:33:19.327Z,25.11
2023-05-08T12:35:46.228Z,25.07
2023-05-08T12:38:15.444Z,25.25
2023-05-08T12:40:43.317Z,25.52
2023-05-08T12:43:10.317Z,25.19
2023-05-08T12:45:39.658Z,25.13
2023-05-08T12:48:07.857Z,25.43
2023-05-08T12:50:41.947Z,25.73
2023-05-08T12:53:10.960Z,25.99
2023-05-08T12:55:39.881Z,25.35
2023-05-08T12:58:15.305Z,25.17
2023-05-08T13:00:47.242Z,24.73
2023-05-08T13:03:34.557Z,24.34
2023-05-08T13:06:01.505Z,24.25
2023-05-08T13:08:32.220Z,23.92
2023-05-08T13:10:59.629Z,24.26
2023-05-08T13:13:28.264Z,23.69
2023-05-08T13:15:55.691Z,23.28
2023-05-08T13:18:25.199Z,23.22
2023-05-08T13:20:52.304Z,23.91
2023-05-08T13:23:19.445Z,23.80
2023-05-08T13:25:46.335Z,23.49
2023-05-08T13:28:13.240Z,23.04
2023-05-08T13:30:40.246Z,23.50
2023-05-08T13:33:07.110Z,23.23
2023-05-08T13:35:34.197Z,22.41
2023-05-08T13:38:01.014Z,21.89
2023-05-08T13:40:27.991Z,22.19
2023-05-08T13:42:54.820Z,22.28
2023-05-08T13:45:21.748Z,21.86
2023-05-08T13:47:49.516Z,21.86
2023-05-08T13:50:17.089Z,22.15
2023-05-08T13:52:43.935Z,21.71
2023-05-08T13:55:12.505Z,20.42
2023-05-08T13:57:39.783Z,20.08
2023-05-08T14:00:07.485Z,19.94
2023-05-08T14:02:34.530Z,19.84
2023-05-08T14:05:01.628Z,19.59
2023-05-08T14:07:30.139Z,19.72
2023-05-08T14:09:57.032Z,19.71
2023-05-08T14:12:23.929Z,19.77
2023-05-08T14:14:50.855Z,19.60
2023-05-08T14:17:18.644Z,19.39
2023-05-08T14:19:46.330Z,19.28
2023-05-08T14:22:13.170Z,19.79
2023-05-08T14:24:40.196Z,20.00
2023-05-08T14:27:07.024Z,20.20
2023-05-08T14:29:34.206Z,20.45
2023-05-08T14:32:01.697Z,20.34
2023-05-08T14:34:28.648Z,21.02
2023-05-08T14:36:55.490Z,20.94
2023-05-08T14:39:22.456Z,20.88
2023-05-08T14:42:05.740Z,20.62
2023-05-08T14:44:36.263Z,20.06
2023-05-08T14:47:03.129Z,19.82
2023-05-08T14:49:37.423Z,19.00
2023-05-08T14:52:05.745Z,19.21
2023-05-08T14:54:33.005Z,19.31
2023-05-08T14:57:00.355Z,19.59
2023-05-08T14:59:27.202Z,19.55
2023-05-08T15:01:54.740Z,19.55
2023-05-08T15:04:21.882Z,19.60
2023-05-08T15:06:48.933Z,19.33
2023-05-08T15:09:16.958Z,19.41
2023-05-08T15:11:44.348Z,18.89
2023-05-08T15:14:11.389Z,19.06
2023-05-08T15:16:38.371Z,19.72
2023-05-08T15:19:05.409Z,19.27
2023-05-08T15:21:32.451Z,19.73
2023-05-08T15:23:59.411Z,19.02
2023-05-08T15:26:26.305Z,19.11
2023-05-08T15:28:53.374Z,19.46
2023-05-08T15:31:20.394Z,19.86
2023-05-08T15:33:48.309Z,20.11
2023-05-08T15:36:15.619Z,20.61
2023-05-08T15:38:42.558Z,20.34
2023-05-08T15:41:14.572Z,20.82
2023-05-08T15:43:42.789Z,20.98
2023-05-08T15:46:09.999Z,20.98
2023-05-08T15:48:37.069Z,21.45
2023-05-08T15:51:03.959Z,22.39
2023-05-08T15:53:30.852Z,22.46
2023-05-08T15:55:57.698Z,22.63
2023-05-08T15:58:24.957Z,22.84
2023-05-08T16:00:52.189Z,22.74
2023-05-08T16:03:19.616Z,22.21
2023-05-08T16:05:46.582Z,22.08
2023-05-08T16:08:13.927Z,22.47
2023-05-08T16:10:44.009Z,22.72
2023-05-08T16:13:11.258Z,22.64
2023-05-08T16:15:38.101Z,22.82
2023-05-08T16:18:06.269Z,23.22
2023-05-08T16:20:36.422Z,23.11
2023-05-08T16:23:03.423Z,22.89
2023-05-08T16:25:30.314Z,23.47
2023-05-08T16:27:57.271Z,23.71
2023-05-08T16:30:24.087Z,23.77
2023-05-08T16:32:50.987Z,23.85
2023-05-08T16:35:18.103Z,24.22
2023-05-08T16:37:45.140Z,24.53
2023-05-08T16:40:12.379Z,24.48
2023-05-08T16:42:39.742Z,25.11
2023-05-08T16:45:08.120Z,25.69
2023-05-08T16:47:35.173Z,25.93
2023-05-08T16:50:02.475Z,26.21
2023-05-08T16:52:29.447Z,25.91
2023-05-08T16:54:56.266Z,26.15
2023-05-08T16:57:23.156Z,26.24
2023-05-08T16:59:49.970Z,26.51
2023-05-08T17:02:19.699Z,26.70
2023-05-08T17:04:48.147Z,27.17
2023-05-08T17:07:15.592Z,27.62
2023-05-08T17:09:42.824Z,28.28
2023-05-08T17:12:10.014Z,27.94
2023-05-08T17:14:39.462Z,27.78
2023-05-08T17:17:07.011Z,27.79
2023-05-08T17:19:34.259Z,28.02
2023-05-08T17:22:01.147Z,27.94
2023-05-08T17:24:30.040Z,27.92
2023-05-08T17:26:56.875Z,27.95
2023-05-08T17:29:23.695Z,28.15
2023-05-08T17:31:51.265Z,28.47
2023-05-08T17:34:18.797Z,28.26
2023-05-08T17:36:45.678Z,28.40
2023-05-08T17:39:12.608Z,28.38
2023-05-08T17:41:39.469Z,28.37
2023-05-08T17:44:07.116Z,28.72
2023-05-08T17:46:35.243Z,28.87
2023-05-08T17:49:02.132Z,28.79
2023-05-08T17:51:28.964Z,29.07
2023-05-08T17:53:56.923Z,29.42
2023-05-08T17:56:23.946Z,29.36
2023-05-08T17:58:52.551Z,29.98
2023-05-08T18:01:19.922Z,29.96
2023-05-08T18:03:48.292Z,29.96
2023-05-08T18:06:16.206Z,30.18
2023-05-08T18:08:43.289Z,30.70
2023-05-08T18:11:20.812Z,31.10
2023-05-08T18:13:47.942Z,31.21
2023-05-08T18:16:17.312Z,31.23
2023-05-08T18:18:44.579Z,31.34
2023-05-08T18:21:11.400Z,31.36
2023-05-08T18:23:38.227Z,31.62
2023-05-08T18:26:05.137Z,31.61
2023-05-08T18:28:32.033Z,31.51
2023-05-08T18:30:58.968Z,31.66
2023-05-08T18:33:25.953Z,31.61
2023-05-08T18:35:52.773Z,31.77
2023-05-08T18:38:19.743Z,31.90
2023-05-08T18:40:46.679Z,32.28
2023-05-08T18:43:13.733Z,32.31
2023-05-08T18:45:43.301Z,32.37
2023-05-08T18:48:10.669Z,32.45
2023-05-08T18:50:38.098Z,32.46
2023-05-08T18:53:04.993Z,32.48
2023-05-08T18:55:32.248Z,32.45
2023-05-08T18:58:02.468Z,32.33
2023-05-08T19:00:29.467Z,32.40
2023-05-08T19:02:56.487Z,32.65
2023-05-08T19:05:26.683Z,32.92
2023-05-08T19:07:53.690Z,32.55
2023-05-08T19:10:20.635Z,32.15
2023-05-08T19:12:47.573Z,32.24
2023-05-08T19:15:15.391Z,32.23
2023-05-08T19:17:42.637Z,32.17
2023-05-08T19:20:10.608Z,32.34
2023-05-08T19:22:37.660Z,32.62
2023-05-08T19:25:05.337Z,32.44
2023-05-08T19:27:32.242Z,32.33
2023-05-08T19:29:59.324Z,32.35
2023-05-08T19:32:26.569Z,32.63
2023-05-08T19:34:55.490Z,32.95
2023-05-08T19:37:22.317Z,33.12
2023-05-08T19:39:49.116Z,33.43
2023-05-08T19:42:16.013Z,33.26
2023-05-08T19:44:42.822Z,33.19
2023-05-08T19:47:09.682Z,33.38
2023-05-08T19:49:36.528Z,33.27
2023-05-08T19:52:03.668Z,33.54
2023-05-08T19:54:31.065Z,33.37
2023-05-08T19:56:57.966Z,33.22
2023-05-08T19:59:24.980Z,33.31
2023-05-08T20:01:52.316Z,33.12
2023-05-08T20:04:19.449Z,33.08
2023-05-08T20:08:09.423Z,33.71
2023-05-08T20:10:36.323Z,33.53
2023-05-08T20:13:03.177Z,33.03
2023-05-08T20:15:30.106Z,33.08
2023-05-08T20:17:59.330Z,33.51
2023-05-08T20:20:27.385Z,33.63
2023-05-08T20:22:54.368Z,33.37
2023-05-08T20:25:21.339Z,33.58
2023-05-08T20:27:48.173Z,34.08
2023-05-08T20:30:15.403Z,33.66
2023-05-08T20:32:42.471Z,33.52
2023-05-08T20:35:09.422Z,33.36
2023-05-08T20:37:47.149Z,33.80
2023-05-08T20:40:14.851Z,33.76
2023-05-08T20:42:41.915Z,33.57
2023-05-08T20:45:09.797Z,33.59
2023-05-08T20:47:36.960Z,33.83
2023-05-08T20:50:04.696Z,33.67
2023-05-08T20:52:33.107Z,33.71
2023-05-08T20:55:00.928Z,33.73
2023-05-08T20:57:27.900Z,33.67
2023-05-08T20:59:54.819Z,33.63
2023-05-08T21:02:21.723Z,33.40
2023-05-08T21:04:48.714Z,33.57
2023-05-08T21:07:15.800Z,33.72
2023-05-08T21:09:42.636Z,33.67
2023-05-08T21:12:10.181Z,33.61
2023-05-08T21:14:37.472Z,33.80
2023-05-08T21:17:04.404Z,34.07
2023-05-08T21:19:32.053Z,34.44
2023-05-08T21:21:59.100Z,34.35
2023-05-08T21:24:26.338Z,33.79
2023-05-08T21:26:53.596Z,33.84
2023-05-08T21:29:20.511Z,33.86
2023-05-08T21:31:47.479Z,34.12
2023-05-08T21:34:15.159Z,33.88
2023-05-08T21:36:42.147Z,34.20
2023-05-08T21:39:09.459Z,34.16
2023-05-08T21:41:36.256Z,33.94
2023-05-08T21:44:03.239Z,34.24
2023-05-08T21:46:30.259Z,34.34
2023-05-08T21:48:57.164Z,34.43
2023-05-08T21:51:24.284Z,34.40
2023-05-08T21:53:51.250Z,34.54
2023-05-08T21:56:18.032Z,34.30
2023-05-08T21:58:44.963Z,34.20
2023-05-08T22:01:11.920Z,34.58
2023-05-08T22:03:38.776Z,34.80
2023-05-08T22:06:06.061Z,34.95
2023-05-08T22:08:33.003Z,34.89
2023-05-08T22:10:59.949Z,34.55
2023-05-08T22:13:27.330Z,34.41
2023-05-08T22:15:54.597Z,34.87
2023-05-08T22:18:21.430Z,35.01
2023-05-08T22:20:48.242Z,34.88
2023-05-08T22:23:15.045Z,34.81
2023-05-08T22:25:42.134Z,34.86
2023-05-08T22:28:09.285Z,34.82
2023-05-08T22:30:36.335Z,34.67
2023-05-08T22:33:03.447Z,34.60
2023-05-08T22:35:30.517Z,34.91
2023-05-08T22:37:58.309Z,35.17
2023-05-08T22:40:25.274Z,35.22
2023-05-08T22:42:53.682Z,35.47
2023-05-08T22:45:21.105Z,35.21
2023-05-08T22:47:48.060Z,35.37
2023-05-08T22:50:15.071Z,35.39
2023-05-08T22:52:42.034Z,35.41
2023-05-08T22:55:09.414Z,35.64
2023-05-08T22:57:36.248Z,35.69
2023-05-08T23:00:03.247Z,35.39
2023-05-08T23:02:34.209Z,35.25
2023-05-08T23:05:02.151Z,35.52
2023-05-08T23:07:29.030Z,35.33
2023-05-08T23:09:55.959Z,35.50
2023-05-08T23:12:22.902Z,35.39
2023-05-08T23:14:49.859Z,35.02
2023-05-08T23:17:16.898Z,35.37
2023-05-08T23:19:45.680Z,35.37
2023-05-08T23:22:12.840Z,35.16
2023-05-08T23:24:39.985Z,34.95
2023-05-08T23:27:06.809Z,34.78
2023-05-08T23:29:33.782Z,34.86
2023-05-08T23:32:00.820Z,34.85
2023-05-08T23:34:27.825Z,34.90
2023-05-08T23:36:54.711Z,35.10
2023-05-08T23:39:21.556Z,35.01
2023-05-08T23:41:48.420Z,35.66
2023-05-08T23:44:15.517Z,35.56
2023-05-08T23:46:42.662Z,35.66
2023-05-08T23:49:09.774Z,35.81
2023-05-08T23:51:36.798Z,35.97
2023-05-08T23:54:04.017Z,35.73
2023-05-08T23:56:31.206Z,35.60
2023-05-08T23:58:58.148Z,36.15
